• Join FlightAware (Why Join?)
  • Login
  • US Flag 
 
08:52AM EST


 

Airport Tracker/Info


-or-


 

Live Flight TrackerFlight Track Log ✈ N81AU ✈ 10-Nov-2013 ✈ KAUO - KJKA

Flight Track Log - Related Links

Times and Time Zones

All times are in EST time to prevent confusion due to time zone crossing. See the N81AU flight status page for this flight to view local times or setup timezone preferences in your user account.

Time Position Orientation Groundspeed Altitude Reporting Facility
EST Latitude Longitude Course Direction KTS MPH feet Rate Location/Type
04:10PM 32.5833 -85.5167 220° Southwest 124 143 3,900  Level Atlanta TRACON
04:11PM 32.5833 -85.5500 270° West 139 160 4,600 660 Climbing Atlanta TRACON
04:12PM 32.5500 -85.5833 220° Southwest 147 169 5,300 240 Climbing Atlanta TRACON
04:14PM 32.4969 -85.6340 220° Southwest  Level Estimated
04:15PM 32.4614 -85.5866 220° Southwest  Level Estimated
04:21PM 32.2779 -85.8419 220° Southwest  Level Estimated
04:22PM 32.2432 -85.8657 210° Southwest  Level FlightAware Approximate
04:23PM 32.2086 -85.8896 210° Southwest  Level FlightAware Approximate
04:23PM 32.2033 -85.9222 210° Southwest 158 182 8,000  Level Jacksonville Center
04:23PM 32.1756 -85.9483 219° Southwest 157 181 8,000 60 Level Jacksonville Center
04:24PM 32.1739 -85.9134 210° Southwest  Level FlightAware Approximate
04:24PM 32.1714 -85.9531 224° Southwest 159 183 8,100  Level Jacksonville Center
04:24PM 32.1436 -85.9792 219° Southwest 156 180 8,000  Descending Jacksonville Center
04:25PM 32.1392 -85.9372 210° Southwest  Level FlightAware Approximate
04:25PM 32.1350 -85.9861 214° Southwest 154 177 8,100  Level Jacksonville Center
04:25PM 32.1072 -86.0122 219° Southwest 158 182 8,000  Descending Jacksonville Center
04:26PM 32.1046 -85.9609 210° Southwest  Level FlightAware Approximate
04:26PM 32.1028 -86.0194 234° Southwest 161 185 8,100  Level Jacksonville Center
04:26PM 32.0708 -86.0478 217° Southwest 158 182 8,000  Descending Jacksonville Center
04:27PM 32.0699 -85.9847 210° Southwest  Level FlightAware Approximate
04:27PM 32.0708 -86.0478 217° Southwest 161 185 8,100  Level Jacksonville Center
04:27PM 32.0367 -86.0786 217° Southwest 160 184 8,000  Descending Jacksonville Center
04:28PM 32.0352 -86.0084 210° Southwest  Level FlightAware Approximate
04:28PM 32.0367 -86.0808 270° West 161 185 8,100  Level Jacksonville Center
04:28PM 32.0025 -86.1117 217° Southwest 159 183 8,000  Descending Jacksonville Center
04:29PM 32.0003 -86.1164 241° Southwest 161 185 8,100  Climbing Jacksonville Center
04:30PM 31.9703 -86.1472 221° Southwest 158 182 8,000  Descending Jacksonville Center
04:30PM 31.9681 -86.1494 220° Southwest 161 185 8,100 60 Climbing Jacksonville Center
04:31PM 31.9339 -86.1803 217° Southwest 161 185 8,100 -60 Level Jacksonville Center
04:32PM 31.8975 -86.2181 221° Southwest 158 182 8,000  Descending Jacksonville Center
04:32PM 31.9017 -86.2158 24° Northeast 161 185 8,100 60 Climbing Jacksonville Center
04:33PM 31.8675 -86.2464 217° Southwest 161 185 8,100  Level Jacksonville Center
04:34PM 31.8331 -86.2792 219° Southwest 161 185 8,100 -120 Level Jacksonville Center
04:34PM 31.8244 -86.2886 223° Southwest 155 178 8,000  Descending Jacksonville Center
04:35PM 31.7989 -86.3122 218° Southwest 155 178 8,100  Climbing Jacksonville Center
04:35PM 31.7883 -86.3217 217° Southwest 156 180 8,000  Descending Jacksonville Center
04:36PM 31.7667 -86.3428 220° Southwest 155 178 8,100  Climbing Jacksonville Center
04:37PM 31.7344 -86.3758 221° Southwest 161 185 8,100  Level Jacksonville Center
04:38PM 31.7003 -86.4064 217° Southwest 161 185 8,100  Level Jacksonville Center
04:39PM 31.6639 -86.4367 215° Southwest 161 185 8,100  Level Jacksonville Center
04:40PM 31.6275 -86.4717 219° Southwest 161 185 8,100  Level Jacksonville Center
04:41PM 31.5933 -86.4997 215° Southwest 161 185 8,100  Level Jacksonville Center
04:42PM 31.5611 -86.5328 221° Southwest 161 185 8,100  Level Jacksonville Center
04:43PM 31.5247 -86.5606 213° Southwest 161 185 8,100  Level Jacksonville Center
04:44PM 31.4903 -86.5933 219° Southwest 161 185 8,100  Level Jacksonville Center
04:45PM 31.4561 -86.6236 217° Southwest 161 185 8,100  Level Jacksonville Center
04:46PM 31.4217 -86.6561 219° Southwest 161 185 8,100  Level Jacksonville Center
04:47PM 31.3875 -86.6864 217° Southwest 161 185 8,100 -60 Level Jacksonville Center
04:48PM 31.3531 -86.7192 219° Southwest 161 185 8,000 -60 Descending Jacksonville Center
04:49PM 31.3186 -86.7494 217° Southwest 161 185 8,000  Level Jacksonville Center
04:50PM 31.2822 -86.7819 217° Southwest 161 185 8,100  Climbing Jacksonville Center
04:51PM 31.2500 -86.8144 221° Southwest 161 185 8,100  Level Jacksonville Center
04:52PM 31.2136 -86.8444 215° Southwest 161 185 8,100  Level Jacksonville Center
04:53PM 31.1792 -86.8772 219° Southwest 161 185 8,100 -60 Level Jacksonville Center
04:53PM 31.1492 -86.9000 213° Southwest 159 183 8,000  Descending Jacksonville Center
04:54PM 31.1428 -86.9072 224° Southwest 161 185 8,100  Climbing Jacksonville Center
04:55PM 31.1039 -86.9419 217° Southwest 158 182 8,000  Descending Jacksonville Center
04:56PM 31.0719 -86.9672 214° Southwest 161 185 8,100  Climbing Jacksonville Center
04:56PM 31.0653 -86.9742 222° Southwest 160 184 8,000 -120 Descending Jacksonville Center
04:57PM 31.0397 -86.9972 218° Southwest 161 185 8,000  Level Jacksonville Center
04:57PM 31.0308 -87.0067 222° Southwest 160 184 8,000  Level Jacksonville Center
04:58PM 31.0053 -87.0272 215° Southwest 161 185 8,000  Level Jacksonville Center
04:58PM 30.9881 -87.0411 215° Southwest 162 186 8,000  Level Jacksonville Center
04:59PM 30.9708 -87.0572 219° Southwest 161 185 8,000  Level Jacksonville Center
04:59PM 30.9558 -87.0711 218° Southwest 159 183 8,000  Level Jacksonville Center
05:00PM 30.9364 -87.0919 223° Southwest 161 185 8,000 -240 Level Jacksonville Center
05:00PM 30.9169 -87.1058 212° Southwest 162 186 7,800 -540 Descending Jacksonville Center
05:01PM 30.8975 -87.1267 223° Southwest 161 185 7,500 -420 Descending Jacksonville Center
05:01PM 30.8803 -87.1403 214° Southwest 174 200 7,400 -300 Descending Jacksonville Center
05:02PM 30.8611 -87.1589 220° Southwest 161 185 7,200 -420 Descending Jacksonville Center
05:02PM 30.8417 -87.1750 215° Southwest 171 197 7,000 -540 Descending Jacksonville Center
05:03PM 30.8114 -87.2097 225° Southwest 174 200 6,600 -420 Descending Jacksonville Center
05:04PM 30.7703 -87.2467 218° Southwest 171 197 6,200 -480 Descending Jacksonville Center
05:05PM 30.7314 -87.2836 219° Southwest 171 197 5,700 -480 Descending Jacksonville Center
05:06PM 30.6972 -87.3133 217° Southwest 175 201 5,300 -420 Descending Jacksonville Center
05:07PM 30.6581 -87.3525 221° Southwest 178 205 4,900 -420 Descending Jacksonville Center
05:08PM 30.6239 -87.3800 215° Southwest 172 198 4,500 -420 Descending Jacksonville Center
05:09PM 30.5828 -87.4189 219° Southwest 170 196 4,100 -300 Descending Jacksonville Center
05:10PM 30.5525 -87.4464 218° Southwest 170 196 4,000 -120 Descending Jacksonville Center
05:11PM 30.5075 -87.4828 215° Southwest 163 188 3,900 -240 Descending Jacksonville Center
05:12PM 30.4706 -87.5197 221° Southwest 168 193 3,600 -300 Descending Jacksonville Center